Topi Weather



Topi's Current Weather

Temprature 20o few clouds

few clouds

Rain: 0 %

Min Temprature20o
Max Temprature20o
Humidity42
Wind Speed5.1 m/h
Sun Rise06:45:41
Sun Set18:00:35
Current Time: 23-Feb-2019 16:42:02
Lat/Lon: 34.07, 72.61




Topi's Geo Location




Topi's Weather Forecast

Time Overall Temp Min Temp Max Temp Humidity Wind Speed Rain
23-Feb-2019 (Sat)
17:00:00 broken clouds 17.610 13.624 17.610 61 1.01 m/h 0 %
20:00:00 scattered clouds 9.600 6.609 9.600 78 0.52 m/h 0 %
23:00:00 clear sky 5.080 3.090 5.080 83 1.17 m/h 0 %
24-Feb-2019 (Sun)
02:00:00 clear sky 2.960 1.960 2.960 81 1.71 m/h 0 %
05:00:00 clear sky 1.317 1.317 1.317 80 1.86 m/h 0 %
08:00:00 clear sky 3.953 3.953 3.953 72 1.96 m/h 0 %
11:00:00 clear sky 13.299 13.299 13.299 61 1.16 m/h 0 %
14:00:00 clear sky 15.481 15.481 15.481 58 1.42 m/h 0 %
17:00:00 clear sky 14.446 14.446 14.446 54 0.95 m/h 0 %
20:00:00 few clouds 6.018 6.018 6.018 82 0.86 m/h 0 %
23:00:00 scattered clouds 4.561 4.561 4.561 82 1.96 m/h 0 %
25-Feb-2019 (Mon)
02:00:00 scattered clouds 3.130 3.130 3.130 78 1.67 m/h 0 %
05:00:00 scattered clouds 2.427 2.427 2.427 76 1.36 m/h 0 %
08:00:00 broken clouds 4.470 4.470 4.470 71 1.42 m/h 0 %
11:00:00 light rain 9.997 9.997 9.997 60 1.21 m/h 1 %
14:00:00 light rain 9.123 9.123 9.123 83 1.37 m/h 160 %
17:00:00 moderate rain 7.537 7.537 7.537 95 1.06 m/h 381 %
20:00:00 moderate rain 6.523 6.523 6.523 99 0.96 m/h 518 %
23:00:00 light rain 6.242 6.242 6.242 98 1.11 m/h 103 %
26-Feb-2019 (Tue)
02:00:00 light rain 5.776 5.776 5.776 97 0.91 m/h 39 %
05:00:00 light rain 5.597 5.597 5.597 99 0.51 m/h 127 %
08:00:00 light rain 6.057 6.057 6.057 99 0.97 m/h 197 %
11:00:00 light rain 10.317 10.317 10.317 93 1.57 m/h 38 %
14:00:00 broken clouds 11.721 11.721 11.721 85 1.51 m/h 0 %
17:00:00 clear sky 11.314 11.314 11.314 81 1.31 m/h 0 %
20:00:00 clear sky 4.611 4.611 4.611 93 1.32 m/h 0 %
23:00:00 clear sky 1.548 1.548 1.548 87 0.92 m/h 0 %
27-Feb-2019 (Wed)
02:00:00 clear sky 0.131 0.131 0.131 85 0.86 m/h 0 %
05:00:00 few clouds 0.093 0.093 0.093 83 1.4 m/h 0 %
08:00:00 light rain 3.515 3.515 3.515 76 1.32 m/h 3 %
11:00:00 clear sky 10.220 10.220 10.220 88 1.16 m/h 0 %
14:00:00 clear sky 11.836 11.836 11.836 81 1.5 m/h 0 %
17:00:00 light rain 10.898 10.898 10.898 74 1.21 m/h 9 %
20:00:00 light rain 4.167 4.167 4.167 90 0.92 m/h 8 %
23:00:00 scattered clouds 1.841 1.841 1.841 84 1.32 m/h 0 %
28-Feb-2019 (Thu)
02:00:00 few clouds 1.866 1.866 1.866 84 2.06 m/h 0 %
05:00:00 broken clouds 0.663 0.663 0.663 85 1.21 m/h 0 %
08:00:00 broken clouds 2.515 2.515 2.515 76 1.16 m/h 0 %
11:00:00 overcast clouds 8.897 8.897 8.897 71 1.31 m/h 0 %
14:00:00 overcast clouds 11.979 11.979 11.979 67 1.32 m/h 0 %

Famous Cities (60)